createdAt,value
2023-03-11T00:07:13.893Z,1.38
2023-03-11T00:17:16.539Z,1.48
2023-03-11T00:27:20.498Z,1.45
2023-03-11T00:37:23.196Z,1.23
2023-03-11T00:47:27.149Z,1.28
2023-03-11T00:57:29.784Z,1.48
2023-03-11T01:07:34.420Z,1.61
2023-03-11T01:17:37.042Z,1.67
2023-03-11T01:27:41.024Z,1.71
2023-03-11T01:37:43.713Z,1.67
2023-03-11T01:47:47.654Z,1.67
2023-03-11T01:57:52.565Z,1.61
2023-03-11T02:07:56.947Z,1.35
2023-03-11T02:18:02.561Z,1.46
2023-03-11T02:28:09.931Z,1.57
2023-03-11T02:38:13.949Z,1.54
2023-03-11T02:48:19.065Z,1.55
2023-03-11T02:58:21.684Z,1.58
2023-03-11T03:08:25.648Z,1.58
2023-03-11T03:18:28.655Z,1.52
2023-03-11T03:28:32.894Z,1.61
2023-03-11T03:38:35.517Z,1.54
2023-03-11T03:48:39.736Z,1.45
2023-03-11T03:58:42.449Z,1.08
2023-03-11T04:08:46.779Z,0.79
2023-03-11T04:18:49.900Z,0.84
2023-03-11T04:28:53.824Z,0.80
2023-03-11T04:38:56.872Z,0.73
2023-03-11T04:49:00.812Z,0.53
2023-03-11T04:59:03.448Z,0.60
2023-03-11T05:09:13.978Z,0.61
2023-03-11T05:19:33.152Z,0.48
2023-03-11T05:29:37.305Z,0.08
2023-03-11T05:39:39.968Z,-0.24
2023-03-11T05:49:43.949Z,-0.46
2023-03-11T05:59:46.913Z,-0.69
2023-03-11T06:09:52.109Z,-0.93
2023-03-11T06:19:54.739Z,-0.79
2023-03-11T06:29:58.673Z,-0.80
2023-03-11T06:40:01.257Z,-0.90
2023-03-11T06:50:07.345Z,-0.76
2023-03-11T07:00:13.097Z,-0.56
2023-03-11T07:10:18.903Z,-0.54
2023-03-11T07:20:21.530Z,-0.37
2023-03-11T07:30:25.530Z,-0.16
2023-03-11T07:40:28.227Z,0.22
2023-03-11T07:50:32.148Z,0.50
2023-03-11T08:00:34.742Z,0.96
2023-03-11T08:10:39.473Z,1.12
2023-03-11T08:20:42.318Z,1.20
2023-03-11T08:30:46.366Z,1.38
2023-03-11T08:40:49.038Z,1.71
2023-03-11T08:50:54.757Z,1.83
2023-03-11T09:00:58.030Z,2.00
2023-03-11T09:11:02.109Z,2.29
2023-03-11T09:21:05.088Z,2.56
2023-03-11T09:31:09.148Z,2.98
2023-03-11T09:41:24.147Z,3.13
2023-03-11T09:51:31.099Z,3.20
2023-03-11T10:01:37.396Z,3.52
2023-03-11T10:11:59.100Z,3.82
2023-03-11T10:22:13.779Z,4.22
2023-03-11T10:32:24.195Z,4.33
2023-03-11T10:42:29.697Z,4.71
2023-03-11T10:52:37.466Z,5.06
2023-03-11T11:02:43.752Z,5.48
2023-03-11T11:12:56.995Z,5.33
2023-03-11T11:23:03.006Z,6.16
2023-03-11T11:33:25.298Z,9.47
2023-03-11T11:43:41.545Z,15.82
2023-03-11T11:53:49.944Z,18.84
2023-03-11T12:04:10.449Z,19.33
2023-03-11T12:14:21.092Z,20.70
2023-03-11T12:24:41.410Z,19.36
2023-03-11T12:34:47.320Z,20.99
2023-03-11T12:44:53.714Z,19.01
2023-03-11T12:55:32.980Z,18.64
2023-03-11T13:05:51.730Z,17.23
2023-03-11T13:15:54.584Z,11.75
2023-03-11T13:26:23.385Z,11.08
2023-03-11T13:36:56.393Z,12.62
2023-03-11T13:47:06.020Z,12.40
2023-03-11T13:57:22.341Z,12.82
2023-03-11T14:07:30.217Z,11.26
2023-03-11T14:17:32.998Z,11.67
2023-03-11T14:27:39.021Z,12.96
2023-03-11T14:37:41.619Z,12.21
2023-03-11T14:47:49.010Z,10.96
2023-03-11T14:57:55.673Z,8.82
2023-03-11T15:08:03.512Z,7.69
2023-03-11T15:18:22.839Z,9.38
2023-03-11T15:28:30.272Z,9.54
2023-03-11T15:38:32.988Z,9.12
2023-03-11T15:48:36.964Z,7.60
2023-03-11T15:58:39.944Z,7.53
2023-03-11T16:08:44.840Z,7.08
2023-03-11T16:18:47.449Z,6.53
2023-03-11T16:28:51.419Z,6.23
2023-03-11T16:38:54.043Z,5.03
2023-03-11T16:48:58.571Z,4.27
2023-03-11T16:59:01.292Z,4.18
2023-03-11T17:09:05.366Z,4.24
2023-03-11T17:19:07.992Z,4.22
2023-03-11T17:29:11.998Z,4.22
2023-03-11T17:39:14.672Z,4.14
2023-03-11T17:49:18.625Z,4.26
2023-03-11T17:59:21.276Z,4.52
2023-03-11T18:09:25.240Z,3.95
2023-03-11T18:19:28.017Z,3.82
2023-03-11T18:29:31.990Z,3.73
2023-03-11T18:39:34.609Z,3.55
2023-03-11T18:49:39.042Z,3.43
2023-03-11T18:59:41.685Z,3.41
2023-03-11T19:09:45.694Z,3.13
2023-03-11T19:19:48.269Z,2.97
2023-03-11T19:29:52.374Z,3.05
2023-03-11T19:39:54.994Z,2.83
2023-03-11T19:49:58.998Z,2.75
2023-03-11T20:00:01.693Z,2.81
2023-03-11T20:10:06.648Z,2.70
2023-03-11T20:20:11.037Z,2.67
2023-03-11T20:30:15.938Z,2.45
2023-03-11T20:40:19.928Z,2.49
2023-03-11T20:50:24.349Z,2.43
2023-03-11T21:00:27.260Z,2.39
2023-03-11T21:10:31.823Z,2.46
2023-03-11T21:20:34.504Z,2.34
2023-03-11T21:30:38.625Z,2.28
2023-03-11T21:40:41.372Z,2.21
2023-03-11T21:50:45.394Z,2.09
2023-03-11T22:00:48.651Z,2.13
2023-03-11T22:10:53.134Z,2.00
2023-03-11T22:20:58.632Z,1.98
2023-03-11T22:31:07.176Z,1.41
2023-03-11T22:41:10.116Z,1.32
2023-03-11T22:51:14.121Z,1.21
2023-03-11T23:01:17.159Z,1.36
2023-03-11T23:11:21.902Z,1.26
2023-03-11T23:21:26.068Z,1.22
2023-03-11T23:31:31.325Z,1.10
2023-03-11T23:41:33.907Z,1.09
2023-03-11T23:51:37.909Z,1.16
